DAUB

Biskra Airport

Biskra, Algeria
METAR DAUB 221400Z 23003KT 9999 FEW040 SCT200 34/18 Q1019
Observed Flight Rules
Sep-22 @ 14:00 UTC (an hour ago) Visual Flight Rules
Wind Visibility Clouds
230° at 3 knots 10,000+ meters
Temperatures Readings
Current 34°C / 93°F
Dewpoint 18°C / 64°F
Humidity 39%
Altimeter 30.09" Hg
Pressure 1019 hPa
Elevation 87
METAR DAUB 221400Z 23003KT 9999 FEW040 SCT200 34/18 Q1019
Observed Flight Rules
Sep-22 @ 14:00 UTC
(an hour ago)
VFR
Wind Visibility
230° at 3 knots 10,000+ meters
Clouds
Temperature Dewpoint
34°C / 93°F 18°C / 64°F
Humidity Altimeter Pressure
39% 30.09" Hg 1019 hPa